Time,TemperatureF,DewpointF,PressureIn,WindDirection,WindDirectionDegrees,WindSpeedMPH,WindSpeedGustMPH,Humidity,HourlyPrecipIn,Conditions,Clouds,dailyrainin,SoftwareType,DateUTC
2013-05-24 00:00:00,66.2,51.5,29.29,SE,146,0.0,0.0,59,0.00,,OVC018,2.40,VWS V14.01,2013-05-24 04:00:00,
2013-05-24 00:01:00,66.4,51.6,29.29,SE,146,0.0,0.0,59,0.00,,OVC018,0.00,VWS V14.01,2013-05-24 04:01:00,
2013-05-24 00:02:00,66.4,51.6,29.29,SE,146,0.0,0.0,59,0.00,,OVC021,0.00,VWS V14.01,2013-05-24 04:02:00,
2013-05-24 00:07:00,66.4,51.6,29.29,SE,141,0.0,0.0,59,0.00,,OVC021,0.00,VWS V14.01,2013-05-24 04:07:00,
2013-05-24 00:12:00,66.4,52.1,29.29,SE,141,0.0,0.0,60,0.00,,OVC021,0.00,VWS V14.01,2013-05-24 04:12:00,
2013-05-24 00:17:00,66.4,52.1,29.29,SE,141,0.0,0.0,60,0.00,,OVC021,0.00,VWS V14.01,2013-05-24 04:17:00,
2013-05-24 00:22:00,66.4,52.5,29.29,SE,141,0.0,0.0,61,0.00,,OVC021,0.00,VWS V14.01,2013-05-24 04:22:00,
2013-05-24 00:27:00,66.4,52.5,29.29,NW,326,3.1,8.7,61,0.00,,OVC021,0.00,VWS V14.01,2013-05-24 04:27:00,
2013-05-24 00:32:00,65.1,47.6,29.29,NNE,13,3.6,3.6,53,0.00,,OVC021,0.00,VWS V14.01,2013-05-24 04:32:00,
2013-05-24 00:37:00,64.2,44.7,29.29,NE,54,0.0,2.2,49,0.04,,OVC021,0.04,VWS V14.01,2013-05-24 04:37:00,
2013-05-24 00:42:00,63.5,42.4,29.29,NNW,334,4.0,6.3,46,0.04,,OVC021,0.04,VWS V14.01,2013-05-24 04:42:00,
2013-05-24 00:47:00,63.5,42.9,29.29,SE,124,0.0,0.0,47,0.04,,OVC021,0.04,VWS V14.01,2013-05-24 04:47:00,
2013-05-24 00:52:00,63.3,43.3,29.29,SE,124,0.0,0.0,48,0.04,,OVC021,0.04,VWS V14.01,2013-05-24 04:52:00,
2013-05-24 00:57:00,63.1,43.2,29.29,SE,124,0.0,0.0,48,0.04,,OVC021,0.04,VWS V14.01,2013-05-24 04:57:00,
2013-05-24 01:02:00,63.0,43.0,29.29,SE,124,0.0,0.0,48,0.08,, +RA,0.08,VWS V14.01,2013-05-24 05:02:00,
2013-05-24 01:07:00,63.0,43.0,29.29,SE,124,0.0,0.0,48,0.08,, +RA,0.08,VWS V14.01,2013-05-24 05:07:00,
2013-05-24 01:12:00,63.0,43.0,29.29,SE,124,0.0,0.0,48,0.08,, +RA,0.08,VWS V14.01,2013-05-24 05:12:00,
2013-05-24 01:17:00,63.0,43.5,29.29,SE,124,0.0,0.0,49,0.08,, +RA,0.08,VWS V14.01,2013-05-24 05:17:00,
2013-05-24 01:22:00,63.0,43.5,29.29,SE,124,0.0,0.0,49,0.08,,RA,0.08,VWS V14.01,2013-05-24 05:22:00,
2013-05-24 01:27:00,63.0,43.5,29.29,SE,124,0.0,0.0,49,0.08,,RA,0.08,VWS V14.01,2013-05-24 05:27:00,
2013-05-24 01:32:00,62.8,43.9,29.29,SE,124,0.0,0.0,50,0.12,,RA,0.12,VWS V14.01,2013-05-24 05:32:00,
2013-05-24 01:37:00,62.8,43.9,29.29,SE,124,0.0,0.0,50,0.08,,RA,0.12,VWS V14.01,2013-05-24 05:37:00,
2013-05-24 01:42:00,62.8,44.4,29.29,SE,124,0.0,0.0,51,0.08,,RA,0.12,VWS V14.01,2013-05-24 05:42:00,
2013-05-24 01:47:00,62.8,44.4,29.29,SE,124,0.0,0.0,51,0.12,,RA,0.16,VWS V14.01,2013-05-24 05:47:00,
2013-05-24 01:52:00,62.6,44.2,29.29,SE,124,0.0,0.0,51,0.12,,RA,0.16,VWS V14.01,2013-05-24 05:52:00,
2013-05-24 01:57:00,62.6,44.2,29.26,SE,124,0.0,0.0,51,0.16,,RA,0.20,VWS V14.01,2013-05-24 05:57:00,
2013-05-24 02:02:00,62.4,44.6,29.26,SE,124,0.0,0.0,52,0.12,,RA,0.20,VWS V14.01,2013-05-24 06:02:00,
2013-05-24 02:07:00,62.2,44.4,29.26,SE,124,0.0,0.0,52,0.12,,RA,0.20,VWS V14.01,2013-05-24 06:07:00,
2013-05-24 02:12:00,62.2,44.9,29.26,SE,124,0.0,0.0,53,0.12,,RA,0.20,VWS V14.01,2013-05-24 06:12:00,
2013-05-24 02:17:00,62.2,44.9,29.26,SE,124,0.0,0.0,53,0.16,,RA,0.24,VWS V14.01,2013-05-24 06:17:00,
2013-05-24 02:22:00,62.2,45.4,29.26,SE,124,0.0,0.0,54,0.16,,RA,0.24,VWS V14.01,2013-05-24 06:22:00,
2013-05-24 02:27:00,62.1,45.2,29.26,SE,124,0.0,0.0,54,0.16,,RA,0.24,VWS V14.01,2013-05-24 06:27:00,
2013-05-24 02:32:00,62.1,45.7,29.26,SE,124,0.0,0.0,55,0.12,,RA,0.24,VWS V14.01,2013-05-24 06:32:00,
2013-05-24 02:37:00,62.1,45.7,29.26,SE,124,0.0,0.0,55,0.12,,RA,0.24,VWS V14.01,2013-05-24 06:37:00,
2013-05-24 02:42:00,62.1,45.7,29.23,SE,124,0.0,0.0,55,0.12,,RA,0.24,VWS V14.01,2013-05-24 06:42:00,
2013-05-24 02:47:00,61.9,46.0,29.23,SE,124,0.0,0.0,56,0.08,,RA,0.24,VWS V14.01,2013-05-24 06:47:00,
2013-05-24 02:52:00,61.9,46.0,29.23,SE,124,0.0,0.0,56,0.08,,RA,0.24,VWS V14.01,2013-05-24 06:52:00,
2013-05-24 02:57:00,61.9,46.5,29.23,SE,124,0.0,0.0,57,0.04,,RA,0.24,VWS V14.01,2013-05-24 06:57:00,
2013-05-24 03:02:00,61.9,46.5,29.23,SE,124,0.0,0.0,57,0.04,,SCT110,0.24,VWS V14.01,2013-05-24 07:02:00,
2013-05-24 03:07:00,61.9,47.0,29.23,SE,124,0.0,0.0,58,0.04,,SCT110,0.24,VWS V14.01,2013-05-24 07:07:00,
2013-05-24 03:12:00,61.9,47.0,29.23,SE,124,0.0,0.0,58,0.04,,SCT110,0.24,VWS V14.01,2013-05-24 07:12:00,
2013-05-24 03:17:00,61.7,46.8,29.23,SE,124,0.0,0.0,58,0.00,,SCT110,0.24,VWS V14.01,2013-05-24 07:17:00,
2013-05-24 03:22:00,61.7,47.2,29.23,SE,124,0.0,0.0,59,0.00,,SCT110,0.24,VWS V14.01,2013-05-24 07:22:00,
2013-05-24 03:27:00,61.7,47.2,29.23,SE,124,0.0,0.0,59,0.00,,SCT110,0.24,VWS V14.01,2013-05-24 07:27:00,
2013-05-24 03:32:00,61.7,47.2,29.23,SE,124,0.0,0.0,59,0.00,,SCT110,0.24,VWS V14.01,2013-05-24 07:32:00,
2013-05-24 03:37:00,61.7,47.7,29.23,SE,124,0.0,0.0,60,0.00,,SCT110,0.24,VWS V14.01,2013-05-24 07:37:00,
2013-05-24 03:42:00,61.5,47.5,29.23,SE,124,0.0,0.0,60,0.00,,SCT110,0.24,VWS V14.01,2013-05-24 07:42:00,
2013-05-24 03:47:00,61.5,48.0,29.23,SE,124,0.0,0.0,61,0.00,,SCT110,0.24,VWS V14.01,2013-05-24 07:47:00,
2013-05-24 03:52:00,61.5,48.0,29.23,SE,124,0.0,0.0,61,0.00,,SCT110,0.24,VWS V14.01,2013-05-24 07:52:00,
2013-05-24 03:57:00,61.5,48.0,29.23,SE,124,0.0,0.0,61,0.00,,SCT110,0.24,VWS V14.01,2013-05-24 07:57:00,
2013-05-24 04:02:00,61.5,48.4,29.23,SE,124,0.0,0.0,62,0.00,,SCT110,0.24,VWS V14.01,2013-05-24 08:02:00,
2013-05-24 07:36:00,62.6,52.3,29.29,SE,124,0.0,0.0,69,0.00,,SCT110,0.24,VWS V14.01,2013-05-24 11:36:00,
2013-05-24 07:41:00,62.6,52.3,29.29,SE,124,0.0,0.0,69,0.00,,BKN017,0.24,VWS V14.01,2013-05-24 11:41:00,
2013-05-24 07:46:00,62.8,52.9,29.29,SE,124,0.0,0.0,70,0.00,,BKN017,0.24,VWS V14.01,2013-05-24 11:46:00,
2013-05-24 07:51:00,63.0,53.0,29.29,SE,124,0.0,0.0,70,0.00,,BKN017,0.24,VWS V14.01,2013-05-24 11:51:00,
2013-05-24 07:56:00,63.0,53.0,29.29,SE,124,0.0,0.0,70,0.00,,BKN017,0.24,VWS V14.01,2013-05-24 11:56:00,
2013-05-24 08:01:00,63.1,53.2,29.29,SE,124,0.0,0.0,70,0.00,,BKN017,0.24,VWS V14.01,2013-05-24 12:01:00,
2013-05-24 08:06:00,63.1,53.2,29.29,SE,124,0.0,0.0,70,0.00,,OVC021,0.24,VWS V14.01,2013-05-24 12:06:00,
2013-05-24 08:11:00,63.1,53.2,29.29,SE,124,0.0,0.0,70,0.00,,OVC021,0.24,VWS V14.01,2013-05-24 12:11:00,
2013-05-24 08:16:00,63.1,53.2,29.29,SE,124,0.0,0.0,70,0.00,,OVC021,0.24,VWS V14.01,2013-05-24 12:16:00,
2013-05-24 08:21:00,63.3,53.4,29.29,SE,124,0.0,0.0,70,0.00,,OVC021,0.24,VWS V14.01,2013-05-24 12:21:00,
2013-05-24 08:26:00,63.5,53.9,29.29,SE,124,0.0,0.0,71,0.00,,OVC021,0.24,VWS V14.01,2013-05-24 12:26:00,
2013-05-24 08:31:00,63.5,53.9,29.29,SE,124,0.0,0.0,71,0.00,,BKN100,0.24,VWS V14.01,2013-05-24 12:31:00,
2013-05-24 08:36:00,62.8,50.0,29.29,WNW,296,5.4,5.8,63,0.00,,BKN100,0.24,VWS V14.01,2013-05-24 12:36:00,
2013-05-24 08:41:00,60.6,39.2,29.29,WNW,301,2.7,5.4,45,0.00,,BKN100,0.24,VWS V14.01,2013-05-24 12:41:00,
2013-05-24 08:46:00,59.7,37.8,29.29,NNW,328,3.6,3.6,44,0.00,,BKN100,0.24,VWS V14.01,2013-05-24 12:46:00,
2013-05-24 08:51:00,58.8,36.4,29.29,NW,324,3.1,4.0,43,0.00,,BKN100,0.24,VWS V14.01,2013-05-24 12:51:00,
2013-05-24 08:56:00,57.6,33.4,29.32,NW,318,6.7,6.7,40,0.00,,BKN100,0.24,VWS V14.01,2013-05-24 12:56:00,
2013-05-24 09:01:00,56.8,34.0,29.32,WNW,303,3.6,8.1,42,0.00,,BKN100,0.24,VWS V14.01,2013-05-24 13:01:00,
2013-05-24 09:06:00,56.3,33.5,29.32,WNW,292,3.1,5.8,42,0.00,,BKN040,0.24,VWS V14.01,2013-05-24 13:06:00,
2013-05-24 09:11:00,55.8,33.0,29.32,SE,124,5.8,8.7,42,0.00,,OVC040,0.24,VWS V14.01,2013-05-24 13:11:00,
2013-05-24 09:16:00,55.2,32.0,29.32,ESE,115,4.9,4.9,41,0.00,,OVC040,0.24,VWS V14.01,2013-05-24 13:16:00,
2013-05-24 09:21:00,54.9,31.0,29.32,NE,53,2.7,7.2,40,0.00,,OVC040,0.24,VWS V14.01,2013-05-24 13:21:00,
2013-05-24 09:26:00,54.7,30.2,29.32,WNW,300,5.4,5.4,39,0.00,,OVC040,0.24,VWS V14.01,2013-05-24 13:26:00,
2013-05-24 09:31:00,54.7,30.2,29.32,ESE,120,0.0,0.0,39,0.00,,OVC040,0.24,VWS V14.01,2013-05-24 13:31:00,
2013-05-24 09:36:00,54.7,30.2,29.32,NNE,17,2.2,3.1,39,0.00,,OVC040,0.24,VWS V14.01,2013-05-24 13:36:00,
2013-05-24 09:41:00,54.5,28.8,29.32,NNW,330,4.0,5.8,37,0.00,,OVC040,0.24,VWS V14.01,2013-05-24 13:41:00,
2013-05-24 09:46:00,54.3,28.0,29.32,North,357,4.0,7.2,36,0.00,,OVC040,0.24,VWS V14.01,2013-05-24 13:46:00,
2013-05-24 09:51:00,54.0,27.6,29.32,NNE,30,4.0,8.3,36,0.00,,OVC040,0.24,VWS V14.01,2013-05-24 13:51:00,
2013-05-24 09:56:00,53.8,27.5,29.35,NW,305,6.3,6.3,36,0.00,,OVC040,0.24,VWS V14.01,2013-05-24 13:56:00,
2013-05-24 10:01:00,53.8,27.5,29.35,NNW,332,8.1,8.1,36,0.00,,OVC040,0.24,VWS V14.01,2013-05-24 14:01:00,
2013-05-24 10:06:00,53.6,25.9,29.35,WNW,293,3.1,3.1,34,0.00,,OVC020,0.24,VWS V14.01,2013-05-24 14:06:00,
2013-05-24 10:11:00,53.6,27.3,29.35,NE,45,0.0,0.0,36,0.00,,OVC020,0.24,VWS V14.01,2013-05-24 14:11:00,
2013-05-24 10:16:00,53.8,27.5,29.35,NW,316,2.2,5.4,36,0.00,,OVC020,0.24,VWS V14.01,2013-05-24 14:16:00,
2013-05-24 10:21:00,53.8,26.8,29.35,NW,322,0.0,3.1,35,0.00,,OVC020,0.24,VWS V14.01,2013-05-24 14:21:00,
2013-05-24 10:26:00,53.6,25.2,29.35,NNW,341,3.1,8.3,33,0.00,,OVC020,0.24,VWS V14.01,2013-05-24 14:26:00,
2013-05-24 10:31:00,53.6,25.9,29.35,NW,313,4.9,4.9,34,0.00,,OVC020,0.24,VWS V14.01,2013-05-24 14:31:00,
2013-05-24 10:36:00,53.6,26.6,29.35,NW,322,0.0,2.2,35,0.00,,OVC020,0.24,VWS V14.01,2013-05-24 14:36:00,
2013-05-24 10:41:00,53.8,25.4,29.35,NNW,336,2.2,3.6,33,0.00,,OVC020,0.24,VWS V14.01,2013-05-24 14:41:00,
2013-05-24 10:46:00,54.0,24.8,29.35,NNW,335,5.8,8.7,32,0.00,,OVC020,0.24,VWS V14.01,2013-05-24 14:46:00,
2013-05-24 10:51:00,54.0,23.2,29.35,North,0,0.0,5.4,30,0.00,,OVC020,0.24,VWS V14.01,2013-05-24 14:51:00,
2013-05-24 10:56:00,54.1,23.4,29.35,NW,312,4.9,5.4,30,0.00,,OVC020,0.24,VWS V14.01,2013-05-24 14:56:00,
2013-05-24 11:01:00,54.1,22.6,29.35,NNW,334,3.1,5.8,29,0.00,,OVC020,0.24,VWS V14.01,2013-05-24 15:01:00,
2013-05-24 11:06:00,54.0,21.6,29.35,NW,310,7.6,7.6,28,0.00,,OVC028,0.24,VWS V14.01,2013-05-24 15:06:00,
2013-05-24 11:11:00,53.8,22.3,29.35,NW,316,4.9,8.7,29,0.00,,OVC028,0.24,VWS V14.01,2013-05-24 15:11:00,
2013-05-24 11:16:00,53.6,21.3,29.35,WNW,288,6.3,7.6,28,0.00,,OVC028,0.24,VWS V14.01,2013-05-24 15:16:00,
2013-05-24 11:21:00,53.6,21.3,29.35,North,0,3.1,6.3,28,0.00,,OVC030,0.24,VWS V14.01,2013-05-24 15:21:00,
2013-05-24 11:26:00,53.4,21.1,29.35,NNE,16,5.8,6.3,28,0.00,,OVC030,0.24,VWS V14.01,2013-05-24 15:26:00,
2013-05-24 11:31:00,53.6,21.3,29.35,East,88,3.1,4.0,28,0.00,,OVC030,0.24,VWS V14.01,2013-05-24 15:31:00,
2013-05-24 11:36:00,53.6,21.3,29.35,WNW,296,3.6,7.2,28,0.00,,OVC030,0.24,VWS V14.01,2013-05-24 15:36:00,
2013-05-24 11:41:00,53.2,21.0,29.35,NNW,333,5.4,5.4,28,0.00,,OVC030,0.24,VWS V14.01,2013-05-24 15:41:00,
2013-05-24 11:46:00,53.1,21.7,29.35,NW,309,8.7,8.7,29,0.00,,OVC030,0.24,VWS V14.01,2013-05-24 15:46:00,
2013-05-24 11:51:00,52.5,22.0,29.35,WNW,294,0.0,0.0,30,0.00,,OVC030,0.24,VWS V14.01,2013-05-24 15:51:00,
2013-05-24 11:56:00,52.3,22.6,29.35,NW,317,3.6,11.0,31,0.00,,OVC030,0.24,VWS V14.01,2013-05-24 15:56:00,
2013-05-24 12:01:00,52.2,24.7,29.35,NW,323,8.3,9.2,34,0.00,,OVC030,0.24,VWS V14.01,2013-05-24 16:01:00,
2013-05-24 12:06:00,51.6,22.7,29.35,SSW,204,5.8,10.1,32,0.00,,OVC032,0.24,VWS V14.01,2013-05-24 16:06:00,
2013-05-24 12:11:00,51.1,22.3,29.38,North,353,6.3,11.0,32,0.00,,OVC032,0.24,VWS V14.01,2013-05-24 16:11:00,
2013-05-24 12:16:00,50.7,24.1,29.38,NNW,348,5.4,5.4,35,0.00,,OVC032,0.24,VWS V14.01,2013-05-24 16:16:00,
2013-05-24 12:21:00,50.5,24.6,29.38,North,357,3.6,8.3,36,0.00,,OVC032,0.24,VWS V14.01,2013-05-24 16:21:00,
2013-05-24 12:26:00,50.2,24.9,29.38,NNW,337,3.1,10.1,37,0.00,,OVC032,0.24,VWS V14.01,2013-05-24 16:26:00,
2013-05-24 12:31:00,49.8,25.2,29.38,NNW,329,3.1,3.1,38,0.00,,OVC032,0.24,VWS V14.01,2013-05-24 16:31:00,
2013-05-24 12:36:00,49.6,25.7,29.38,NNW,339,8.1,8.1,39,0.00,,OVC032,0.24,VWS V14.01,2013-05-24 16:36:00,
2013-05-24 12:41:00,49.3,25.4,29.38,NNW,348,3.6,10.1,39,0.00,,-RA,0.24,VWS V14.01,2013-05-24 16:41:00,
2013-05-24 12:46:00,48.9,25.7,29.38,NW,317,3.1,5.8,40,0.00,,-RA,0.24,VWS V14.01,2013-05-24 16:46:00,
2013-05-24 12:51:00,48.9,26.3,29.38,NNW,336,3.1,10.1,41,0.04,,-RA,0.28,VWS V14.01,2013-05-24 16:51:00,
2013-05-24 12:56:00,48.6,26.5,29.38,NW,321,7.6,7.6,42,0.04,,-RA,0.28,VWS V14.01,2013-05-24 16:56:00,
2013-05-24 13:01:00,48.4,26.9,29.38,NE,41,4.0,8.7,43,0.08,,-RA,0.31,VWS V14.01,2013-05-24 17:01:00,
2013-05-24 13:06:00,48.2,27.9,29.38,NNW,333,0.0,7.6,45,0.08,,-RA,0.31,VWS V14.01,2013-05-24 17:06:00,
2013-05-24 13:11:00,48.0,28.2,29.38,WNW,299,0.0,4.0,46,0.12,,-RA,0.35,VWS V14.01,2013-05-24 17:11:00,
2013-05-24 13:16:00,47.8,28.6,29.38,North,10,3.6,3.6,47,0.16,,-RA,0.39,VWS V14.01,2013-05-24 17:16:00,
2013-05-24 13:21:00,47.8,29.1,29.38,North,353,4.9,4.9,48,0.20,,RA,0.43,VWS V14.01,2013-05-24 17:21:00,
2013-05-24 13:26:00,47.8,29.6,29.38,NNW,331,2.7,5.8,49,0.24,,RA,0.47,VWS V14.01,2013-05-24 17:26:00,
2013-05-24 13:31:00,47.8,29.6,29.38,West,262,3.6,6.3,49,0.28,,RA,0.51,VWS V14.01,2013-05-24 17:31:00,
2013-05-24 13:36:00,48.0,30.3,29.38,NW,313,8.1,8.1,50,0.28,,RA,0.51,VWS V14.01,2013-05-24 17:36:00,
2013-05-24 13:41:00,48.2,30.0,29.38,NW,306,0.0,8.1,49,0.35,, +RA,0.59,VWS V14.01,2013-05-24 17:41:00,
2013-05-24 13:46:00,48.6,30.3,29.38,NE,39,0.0,2.7,49,0.35,, +RA,0.59,VWS V14.01,2013-05-24 17:46:00,
2013-05-24 13:51:00,48.7,28.9,29.38,North,353,5.8,12.3,46,0.35,,-RA,0.59,VWS V14.01,2013-05-24 17:51:00,
2013-05-24 13:56:00,48.9,29.6,29.38,North,353,2.7,5.8,47,0.31,,-RA,0.59,VWS V14.01,2013-05-24 17:56:00,
2013-05-24 14:01:00,49.3,30.4,29.38,NW,321,6.3,10.5,48,0.28,,-RA,0.59,VWS V14.01,2013-05-24 18:01:00,
2013-05-24 14:06:00,49.3,29.4,29.38,NNW,334,3.1,10.1,46,0.28,,-RA,0.59,VWS V14.01,2013-05-24 18:06:00,
2013-05-24 14:11:00,49.6,28.6,29.38,WNW,303,2.7,2.7,44,0.24,,-RA,0.59,VWS V14.01,2013-05-24 18:11:00,
2013-05-24 14:16:00,49.6,28.1,29.38,West,277,8.3,8.3,43,0.20,,-RA,0.59,VWS V14.01,2013-05-24 18:16:00,
2013-05-24 14:21:00,49.5,26.2,29.38,North,0,2.7,7.6,40,0.16,,RA,0.59,VWS V14.01,2013-05-24 18:21:00,
2013-05-24 14:26:00,49.5,26.2,29.38,ENE,65,4.0,8.7,40,0.12,,RA,0.59,VWS V14.01,2013-05-24 18:26:00,
2013-05-24 14:31:00,49.5,26.8,29.38,West,262,0.0,0.0,41,0.08,,-RA,0.59,VWS V14.01,2013-05-24 18:31:00,
2013-05-24 14:36:00,49.5,26.8,29.38,WSW,248,7.6,7.6,41,0.08,,-RA,0.59,VWS V14.01,2013-05-24 18:36:00,
2013-05-24 14:41:00,49.3,26.0,29.38,NW,316,2.7,10.1,40,0.08,,-RA,0.59,VWS V14.01,2013-05-24 18:41:00,
2013-05-24 14:46:00,49.5,27.9,29.38,NNW,344,8.1,8.1,43,0.00,,-RA,0.59,VWS V14.01,2013-05-24 18:46:00,
2013-05-24 14:51:00,49.5,27.9,29.38,NNW,329,7.6,7.6,43,0.00,,-RA,0.59,VWS V14.01,2013-05-24 18:51:00,
2013-05-24 14:56:00,49.5,28.5,29.41,NW,309,3.1,3.1,44,0.00,,-RA,0.59,VWS V14.01,2013-05-24 18:56:00,
2013-05-24 15:01:00,49.3,28.3,29.41,NW,321,3.1,6.3,44,0.00,,-RA,0.59,VWS V14.01,2013-05-24 19:01:00,
2013-05-24 15:06:00,49.1,27.0,29.41,WNW,300,8.7,11.0,42,0.00,,-RA,0.59,VWS V14.01,2013-05-24 19:06:00,
2013-05-24 15:11:00,49.1,27.0,29.41,WNW,285,5.4,6.3,42,0.00,,-RA,0.59,VWS V14.01,2013-05-24 19:11:00,
2013-05-24 15:16:00,48.9,27.4,29.41,North,353,2.7,5.4,43,0.00,,-RA,0.59,VWS V14.01,2013-05-24 19:16:00,
2013-05-24 15:21:00,48.9,27.4,29.41,NNW,332,3.1,5.4,43,0.00,,-RA,0.59,VWS V14.01,2013-05-24 19:21:00,
2013-05-24 15:26:00,48.9,27.4,29.41,North,0,4.0,4.0,43,0.00,,-RA,0.59,VWS V14.01,2013-05-24 19:26:00,
2013-05-24 15:31:00,48.7,26.7,29.41,NW,309,5.4,7.6,42,0.04,,-RA,0.63,VWS V14.01,2013-05-24 19:31:00,
2013-05-24 15:36:00,48.7,26.7,29.41,North,0,4.0,4.0,42,0.04,,-RA,0.63,VWS V14.01,2013-05-24 19:36:00,
2013-05-24 15:41:00,48.7,27.8,29.41,NNW,336,2.7,8.1,44,0.04,, +RA,0.63,VWS V14.01,2013-05-24 19:41:00,
2013-05-24 15:46:00,48.9,28.0,29.41,NNW,341,8.3,11.0,44,0.04,, +RA,0.63,VWS V14.01,2013-05-24 19:46:00,
2013-05-24 15:51:00,48.9,27.4,29.41,WNW,292,4.9,10.1,43,0.04,,-RA,0.63,VWS V14.01,2013-05-24 19:51:00,
2013-05-24 15:56:00,48.7,25.5,29.41,NNW,338,6.3,10.1,40,0.04,,-RA,0.63,VWS V14.01,2013-05-24 19:56:00,
2013-05-24 16:01:00,48.7,26.7,29.41,NW,319,6.3,6.3,42,0.04,,-RA,0.63,VWS V14.01,2013-05-24 20:01:00,
2013-05-24 16:06:00,48.7,27.3,29.41,NNW,334,2.7,6.3,43,0.04,,-RA,0.63,VWS V14.01,2013-05-24 20:06:00,
2013-05-24 16:11:00,48.6,26.5,29.38,WNW,287,4.0,8.1,42,0.04,,-RA,0.63,VWS V14.01,2013-05-24 20:11:00,
2013-05-24 16:16:00,48.6,26.5,29.38,NNW,330,4.0,10.1,42,0.04,,-RA,0.63,VWS V14.01,2013-05-24 20:16:00,
2013-05-24 16:21:00,48.7,27.3,29.38,NNW,342,7.6,7.6,43,0.04,,-RA,0.63,VWS V14.01,2013-05-24 20:21:00,
2013-05-24 16:26:00,48.7,27.8,29.41,NW,320,4.0,4.9,44,0.04,,-RA,0.63,VWS V14.01,2013-05-24 20:26:00,
2013-05-24 16:31:00,48.6,27.6,29.41,NNE,17,3.1,5.4,44,0.04,,-RA,0.67,VWS V14.01,2013-05-24 20:31:00,
2013-05-24 16:36:00,48.6,27.6,29.41,NW,324,0.0,0.0,44,0.04,,-RA,0.67,VWS V14.01,2013-05-24 20:36:00,
2013-05-24 16:41:00,48.2,25.0,29.41,NW,304,3.6,10.1,40,0.04,,-RA,0.67,VWS V14.01,2013-05-24 20:41:00,
2013-05-24 16:46:00,48.4,25.8,29.41,NNW,346,3.6,5.8,41,0.04,,-RA,0.67,VWS V14.01,2013-05-24 20:46:00,
2013-05-24 16:51:00,48.2,26.2,29.41,NNE,18,2.7,5.8,42,0.04,,-RA,0.67,VWS V14.01,2013-05-24 20:51:00,
2013-05-24 16:56:00,47.8,25.3,29.41,NNE,29,0.0,8.3,41,0.04,,-RA,0.67,VWS V14.01,2013-05-24 20:56:00,
2013-05-24 17:01:00,47.7,24.5,29.41,North,0,2.7,10.5,40,0.04,,-RA,0.67,VWS V14.01,2013-05-24 21:01:00,
2013-05-24 17:06:00,47.5,24.4,29.41,NNE,21,3.6,4.9,40,0.04,,-RA,0.67,VWS V14.01,2013-05-24 21:06:00,
2013-05-24 17:11:00,47.3,24.2,29.41,North,0,7.6,8.7,40,0.04,,-RA,0.67,VWS V14.01,2013-05-24 21:11:00,
2013-05-24 17:16:00,47.1,23.5,29.41,North,353,10.5,10.5,39,0.04,,-RA,0.67,VWS V14.01,2013-05-24 21:16:00,
2013-05-24 17:21:00,47.3,23.6,29.41,WNW,300,2.2,6.3,39,0.04,,-RA,0.67,VWS V14.01,2013-05-24 21:21:00,
2013-05-24 17:26:00,47.3,24.2,29.41,NNE,25,8.1,8.1,40,0.04,,-RA,0.67,VWS V14.01,2013-05-24 21:26:00,
2013-05-24 17:31:00,47.3,24.2,29.41,NNE,19,0.0,6.3,40,0.00,,-RA,0.67,VWS V14.01,2013-05-24 21:31:00,
2013-05-24 17:36:00,47.3,23.6,29.41,NNW,334,8.1,8.7,39,0.00,,-RA,0.67,VWS V14.01,2013-05-24 21:36:00,
2013-05-24 17:41:00,47.3,23.6,29.41,WNW,300,8.3,8.3,39,0.00,,-RA,0.67,VWS V14.01,2013-05-24 21:41:00,
2013-05-24 17:46:00,47.1,22.8,29.41,North,0,2.2,4.9,38,0.00,,-RA,0.67,VWS V14.01,2013-05-24 21:46:00,
2013-05-24 17:51:00,47.1,22.2,29.41,ESE,102,0.0,5.8,37,0.00,,-RA,0.67,VWS V14.01,2013-05-24 21:51:00,
2013-05-24 17:56:00,46.9,22.0,29.41,NW,306,3.6,6.3,37,0.00,,-RA,0.67,VWS V14.01,2013-05-24 21:56:00,
2013-05-24 18:01:00,46.9,22.0,29.41,NW,320,2.7,4.9,37,0.00,,-RA,0.67,VWS V14.01,2013-05-24 22:01:00,
2013-05-24 18:06:00,46.9,22.0,29.41,WNW,298,8.3,8.3,37,0.00,,-RA,0.67,VWS V14.01,2013-05-24 22:06:00,
2013-05-24 18:11:00,46.9,21.4,29.44,NW,305,3.1,8.3,36,0.00,,-RA,0.67,VWS V14.01,2013-05-24 22:11:00,
2013-05-24 18:16:00,46.9,21.4,29.44,North,9,3.6,6.3,36,0.00,,-RA,0.67,VWS V14.01,2013-05-24 22:16:00,
2013-05-24 18:21:00,46.8,19.2,29.44,NW,324,2.7,7.6,33,0.00,,-RA,0.67,VWS V14.01,2013-05-24 22:21:00,
2013-05-24 18:26:00,46.8,17.7,29.44,ESE,109,4.0,10.1,31,0.00,,-RA,0.67,VWS V14.01,2013-05-24 22:26:00,
2013-05-24 18:31:00,46.8,17.7,29.44,ESE,122,4.0,8.3,31,0.00,,-RA,0.67,VWS V14.01,2013-05-24 22:31:00,
2013-05-24 18:36:00,46.8,17.7,29.44,West,271,8.3,8.3,31,0.00,,-RA,0.67,VWS V14.01,2013-05-24 22:36:00,
2013-05-24 18:41:00,46.6,18.3,29.44,NW,315,4.9,8.1,32,0.00,,-RA,0.67,VWS V14.01,2013-05-24 22:41:00,
2013-05-24 18:46:00,46.6,19.0,29.44,NNW,338,4.0,5.8,33,0.00,,-RA,0.67,VWS V14.01,2013-05-24 22:46:00,
2013-05-24 18:51:00,46.2,18.7,29.44,North,353,2.7,2.7,33,0.00,,-RA,0.67,VWS V14.01,2013-05-24 22:51:00,
2013-05-24 18:56:00,46.2,21.4,29.44,North,353,8.3,8.3,37,0.00,,-RA,0.67,VWS V14.01,2013-05-24 22:56:00,
2013-05-24 19:01:00,46.0,21.2,29.44,SSE,154,3.6,3.6,37,0.00,,-RA,0.67,VWS V14.01,2013-05-24 23:01:00,
2013-05-24 19:06:00,45.9,21.1,29.44,WNW,297,4.0,6.3,37,0.00,,-RA,0.67,VWS V14.01,2013-05-24 23:06:00,
2013-05-24 19:11:00,45.9,20.4,29.44,NNW,341,6.3,8.7,36,0.00,,-RA,0.67,VWS V14.01,2013-05-24 23:11:00,
2013-05-24 19:16:00,45.7,19.6,29.44,NW,306,15.0,15.0,35,0.00,,-RA,0.67,VWS V14.01,2013-05-24 23:16:00,
2013-05-24 19:21:00,45.7,20.9,29.44,NNW,329,5.4,5.8,37,0.00,,-RA,0.67,VWS V14.01,2013-05-24 23:21:00,
2013-05-24 19:26:00,45.5,20.1,29.44,NW,314,3.6,8.3,36,0.00,,-RA,0.67,VWS V14.01,2013-05-24 23:26:00,
2013-05-24 19:31:00,45.5,20.1,29.44,NNW,339,5.8,6.3,36,0.00,,-RA,0.67,VWS V14.01,2013-05-24 23:31:00,
2013-05-24 19:36:00,45.5,20.1,29.44,WNW,299,2.2,6.3,36,0.00,,-RA,0.67,VWS V14.01,2013-05-24 23:36:00,
2013-05-24 19:41:00,45.5,20.1,29.47,NW,310,0.0,3.6,36,0.00,,-RA,0.67,VWS V14.01,2013-05-24 23:41:00,
2013-05-24 19:46:00,45.5,20.1,29.47,NNW,334,8.1,8.1,36,0.00,,-RA,0.67,VWS V14.01,2013-05-24 23:46:00,
2013-05-24 19:51:00,45.5,18.8,29.47,NW,314,5.4,16.8,34,0.00,,-RA,0.67,VWS V14.01,2013-05-24 23:51:00,
2013-05-24 19:56:00,45.5,19.5,29.47,West,281,5.4,5.4,35,0.00,,-RA,0.67,VWS V14.01,2013-05-24 23:56:00,
2013-05-24 20:01:00,45.5,18.1,29.47,SE,124,3.6,4.0,33,0.00,,-RA,0.67,VWS V14.01,2013-05-25 00:01:00,
2013-05-24 20:06:00,45.7,17.5,29.47,NW,320,8.1,8.1,32,0.00,,OVC033,0.67,VWS V14.01,2013-05-25 00:06:00,
2013-05-24 20:11:00,45.7,16.8,29.47,NW,316,7.6,7.6,31,0.00,,OVC033,0.67,VWS V14.01,2013-05-25 00:11:00,
2013-05-24 20:16:00,45.7,17.5,29.47,South,184,8.3,8.3,32,0.00,,OVC033,0.67,VWS V14.01,2013-05-25 00:16:00,
2013-05-24 20:21:00,45.7,16.8,29.47,West,269,4.9,5.4,31,0.00,,OVC033,0.67,VWS V14.01,2013-05-25 00:21:00,
2013-05-24 20:26:00,45.7,16.0,29.47,NNW,328,0.0,4.0,30,0.00,,OVC033,0.67,VWS V14.01,2013-05-25 00:26:00,
2013-05-24 20:31:00,45.9,16.2,29.47,NW,308,4.0,4.0,30,0.00,,OVC033,0.67,VWS V14.01,2013-05-25 00:31:00,
2013-05-24 20:36:00,45.9,16.2,29.47,West,281,5.4,5.8,30,0.00,,OVC033,0.67,VWS V14.01,2013-05-25 00:36:00,
2013-05-24 20:41:00,45.9,15.4,29.47,NW,320,5.8,10.1,29,0.00,,OVC033,0.67,VWS V14.01,2013-05-25 00:41:00,
2013-05-24 20:46:00,45.9,15.4,29.47,South,170,4.0,8.1,29,0.00,,OVC033,0.67,VWS V14.01,2013-05-25 00:46:00,
2013-05-24 20:51:00,46.0,15.6,29.47,NNW,339,3.1,13.6,29,0.00,,OVC033,0.67,VWS V14.01,2013-05-25 00:51:00,
2013-05-24 20:56:00,46.0,15.6,29.50,NW,317,5.4,9.2,29,0.00,,OVC033,0.67,VWS V14.01,2013-05-25 00:56:00,
2013-05-24 21:01:00,46.0,15.6,29.50,NW,319,3.6,3.6,29,0.00,,OVC033,0.67,VWS V14.01,2013-05-25 01:01:00,
2013-05-24 21:06:00,46.0,15.6,29.50,NNW,332,3.6,5.4,29,0.00,,OVC037,0.67,VWS V14.01,2013-05-25 01:06:00,
2013-05-24 21:11:00,46.0,15.6,29.47,NE,54,7.6,8.3,29,0.00,,OVC037,0.67,VWS V14.01,2013-05-25 01:11:00,
2013-05-24 21:16:00,46.0,15.6,29.47,NW,317,6.7,8.3,29,0.00,,OVC037,0.67,VWS V14.01,2013-05-25 01:16:00,
2013-05-24 21:21:00,46.0,15.6,29.47,WNW,299,3.6,4.9,29,0.00,,OVC037,0.67,VWS V14.01,2013-05-25 01:21:00,
2013-05-24 21:26:00,46.0,15.6,29.47,NNW,337,3.6,9.6,29,0.00,,OVC037,0.67,VWS V14.01,2013-05-25 01:26:00,
2013-05-24 21:31:00,46.0,16.4,29.47,NW,313,4.9,8.1,30,0.00,,OVC037,0.67,VWS V14.01,2013-05-25 01:31:00,
2013-05-24 21:36:00,46.0,15.6,29.47,East,92,5.8,9.6,29,0.00,,OVC037,0.67,VWS V14.01,2013-05-25 01:36:00,
2013-05-24 21:41:00,46.0,15.6,29.47,NW,305,3.6,3.6,29,0.00,,OVC037,0.67,VWS V14.01,2013-05-25 01:41:00,
2013-05-24 21:46:00,46.0,16.4,29.47,NNW,344,7.6,10.5,30,0.00,,OVC037,0.67,VWS V14.01,2013-05-25 01:46:00,
2013-05-24 21:51:00,46.0,16.4,29.47,NNW,342,2.2,5.4,30,0.00,,OVC037,0.67,VWS V14.01,2013-05-25 01:51:00,
2013-05-24 21:56:00,46.0,16.4,29.47,SSW,202,5.8,5.8,30,0.00,,OVC037,0.67,VWS V14.01,2013-05-25 01:56:00,
2013-05-24 22:01:00,46.0,16.4,29.47,SSE,156,0.0,0.0,30,0.00,,OVC037,0.67,VWS V14.01,2013-05-25 02:01:00,
2013-05-24 22:06:00,46.0,16.4,29.47,NW,316,0.0,3.1,30,0.00,,-RA,0.67,VWS V14.01,2013-05-25 02:06:00,
2013-05-24 22:11:00,46.0,16.4,29.50,ENE,69,3.1,3.1,30,0.00,,-RA,0.67,VWS V14.01,2013-05-25 02:11:00,
2013-05-24 22:16:00,46.0,16.4,29.50,West,277,3.6,6.3,30,0.00,,-RA,0.67,VWS V14.01,2013-05-25 02:16:00,
2013-05-24 22:21:00,46.0,15.6,29.50,WNW,297,4.0,7.6,29,0.00,,-RA,0.67,VWS V14.01,2013-05-25 02:21:00,
2013-05-24 22:26:00,46.2,16.5,29.50,NW,313,4.0,4.0,30,0.00,,-RA,0.67,VWS V14.01,2013-05-25 02:26:00,
2013-05-24 22:31:00,46.0,15.6,29.50,NW,305,4.9,5.8,29,0.00,,-RA,0.67,VWS V14.01,2013-05-25 02:31:00,
2013-05-24 22:36:00,46.0,15.6,29.50,NNW,342,4.9,8.3,29,0.00,,-RA,0.67,VWS V14.01,2013-05-25 02:36:00,
2013-05-24 22:41:00,46.2,15.7,29.50,WSW,250,2.7,3.1,29,0.00,,-RA,0.67,VWS V14.01,2013-05-25 02:41:00,
2013-05-24 22:46:00,46.0,15.6,29.50,WNW,289,5.8,7.6,29,0.00,,-RA,0.67,VWS V14.01,2013-05-25 02:46:00,
2013-05-24 22:51:00,46.0,15.6,29.50,WNW,292,6.3,6.7,29,0.00,,-RA,0.67,VWS V14.01,2013-05-25 02:51:00,
2013-05-24 22:56:00,46.0,15.6,29.50,West,270,10.1,10.1,29,0.00,,-RA,0.67,VWS V14.01,2013-05-25 02:56:00,
2013-05-24 23:01:00,46.0,15.6,29.50,West,276,4.9,7.6,29,0.00,,-RA,0.67,VWS V14.01,2013-05-25 03:01:00,
2013-05-24 23:06:00,45.9,15.4,29.50,North,353,10.5,10.5,29,0.00,,-RA,0.67,VWS V14.01,2013-05-25 03:06:00,
2013-05-24 23:11:00,45.9,16.2,29.50,NW,304,0.0,3.1,30,0.00,,-RA,0.67,VWS V14.01,2013-05-25 03:11:00,
2013-05-24 23:16:00,45.9,16.2,29.50,NW,324,3.1,6.3,30,0.00,,-RA,0.67,VWS V14.01,2013-05-25 03:16:00,
2013-05-24 23:21:00,45.7,16.0,29.50,NW,316,5.4,8.1,30,0.00,,-RA,0.67,VWS V14.01,2013-05-25 03:21:00,
2013-05-24 23:26:00,45.5,15.9,29.50,NW,322,3.6,8.3,30,0.00,,-RA,0.67,VWS V14.01,2013-05-25 03:26:00,
2013-05-24 23:31:00,45.3,16.5,29.50,WNW,294,8.7,8.7,31,0.00,,-RA,0.67,VWS V14.01,2013-05-25 03:31:00,
2013-05-24 23:36:00,45.3,16.5,29.50,NE,50,2.7,5.4,31,0.00,,-RA,0.67,VWS V14.01,2013-05-25 03:36:00,
2013-05-24 23:42:00,45.1,17.1,29.50,NW,326,3.1,3.1,32,0.00,,-RA,0.67,VWS V14.01,2013-05-25 03:42:00,
2013-05-24 23:46:00,45.1,17.1,29.50,West,278,4.9,4.9,32,0.00,,-RA,0.67,VWS V14.01,2013-05-25 03:46:00,
2013-05-24 23:51:00,45.1,17.1,29.50,NW,305,2.7,4.0,32,0.00,,-RA,0.67,VWS V14.01,2013-05-25 03:51:00,
2013-05-24 23:56:00,45.1,16.3,29.50,NE,50,0.0,2.7,31,0.00,,-RA,0.67,VWS V14.01,2013-05-25 03:56:00,